sensor_id;sensor_type;location;lat;lon;timestamp;temperature;humidity
23719;DHT22;43322;52.230;5.702;2023-05-07T00:01:02;15.00;99.90
23719;DHT22;43322;52.230;5.702;2023-05-07T00:03:32;15.00;99.90
23719;DHT22;43322;52.230;5.702;2023-05-07T00:05:59;15.00;99.90
23719;DHT22;43322;52.230;5.702;2023-05-07T00:08:25;15.00;99.90
23719;DHT22;43322;52.230;5.702;2023-05-07T00:10:52;15.10;99.90
23719;DHT22;43322;52.230;5.702;2023-05-07T00:13:19;15.00;99.90
23719;DHT22;43322;52.230;5.702;2023-05-07T00:15:45;15.00;99.90
23719;DHT22;43322;52.230;5.702;2023-05-07T00:18:12;15.10;99.90
23719;DHT22;43322;52.230;5.702;2023-05-07T00:20:40;15.00;99.90
23719;DHT22;43322;52.230;5.702;2023-05-07T00:23:07;15.00;99.90
23719;DHT22;43322;52.230;5.702;2023-05-07T00:25:33;14.50;99.90
23719;DHT22;43322;52.230;5.702;2023-05-07T00:28:00;15.00;99.90
23719;DHT22;43322;52.230;5.702;2023-05-07T00:30:29;15.00;99.90
23719;DHT22;43322;52.230;5.702;2023-05-07T00:32:56;15.00;99.90
23719;DHT22;43322;52.230;5.702;2023-05-07T00:35:23;15.10;99.90
23719;DHT22;43322;52.230;5.702;2023-05-07T00:37:51;15.00;99.90
23719;DHT22;43322;52.230;5.702;2023-05-07T00:40:17;15.00;99.90
23719;DHT22;43322;52.230;5.702;2023-05-07T00:42:44;15.00;99.90
23719;DHT22;43322;52.230;5.702;2023-05-07T00:45:12;15.00;99.90
23719;DHT22;43322;52.230;5.702;2023-05-07T00:47:39;14.90;99.90
23719;DHT22;43322;52.230;5.702;2023-05-07T00:50:07;14.90;99.90
23719;DHT22;43322;52.230;5.702;2023-05-07T00:52:35;14.90;99.90
23719;DHT22;43322;52.230;5.702;2023-05-07T00:55:06;14.80;99.90
23719;DHT22;43322;52.230;5.702;2023-05-07T00:57:35;14.80;99.90
23719;DHT22;43322;52.230;5.702;2023-05-07T01:00:03;14.80;99.90
23719;DHT22;43322;52.230;5.702;2023-05-07T01:02:30;14.80;99.90
23719;DHT22;43322;52.230;5.702;2023-05-07T01:04:57;14.70;99.90
23719;DHT22;43322;52.230;5.702;2023-05-07T01:07:24;14.80;99.90
23719;DHT22;43322;52.230;5.702;2023-05-07T01:09:51;14.70;99.90
23719;DHT22;43322;52.230;5.702;2023-05-07T01:12:19;14.70;99.90
23719;DHT22;43322;52.230;5.702;2023-05-07T01:14:46;14.70;99.90
23719;DHT22;43322;52.230;5.702;2023-05-07T01:17:15;14.60;99.90
23719;DHT22;43322;52.230;5.702;2023-05-07T01:19:42;14.60;99.90
23719;DHT22;43322;52.230;5.702;2023-05-07T01:22:10;14.60;99.90
23719;DHT22;43322;52.230;5.702;2023-05-07T01:24:39;14.60;99.90
23719;DHT22;43322;52.230;5.702;2023-05-07T01:27:05;14.50;99.90
23719;DHT22;43322;52.230;5.702;2023-05-07T01:29:32;14.50;99.90
23719;DHT22;43322;52.230;5.702;2023-05-07T01:32:00;14.50;99.90
23719;DHT22;43322;52.230;5.702;2023-05-07T01:34:28;14.50;99.90
23719;DHT22;43322;52.230;5.702;2023-05-07T01:36:56;14.50;99.90
23719;DHT22;43322;52.230;5.702;2023-05-07T01:39:26;14.50;99.90
23719;DHT22;43322;52.230;5.702;2023-05-07T01:41:54;14.50;99.90
23719;DHT22;43322;52.230;5.702;2023-05-07T01:44:22;14.50;99.90
23719;DHT22;43322;52.230;5.702;2023-05-07T01:46:49;14.50;99.90
23719;DHT22;43322;52.230;5.702;2023-05-07T01:49:16;14.50;99.90
23719;DHT22;43322;52.230;5.702;2023-05-07T01:51:43;14.50;99.90
23719;DHT22;43322;52.230;5.702;2023-05-07T01:54:10;14.40;99.90
23719;DHT22;43322;52.230;5.702;2023-05-07T01:56:37;14.40;99.90
23719;DHT22;43322;52.230;5.702;2023-05-07T01:59:05;14.50;99.90
23719;DHT22;43322;52.230;5.702;2023-05-07T02:01:32;14.50;99.90
23719;DHT22;43322;52.230;5.702;2023-05-07T02:03:58;14.50;99.90
23719;DHT22;43322;52.230;5.702;2023-05-07T02:06:25;14.40;99.90
23719;DHT22;43322;52.230;5.702;2023-05-07T02:08:52;14.40;99.90
23719;DHT22;43322;52.230;5.702;2023-05-07T02:11:19;14.40;99.90
23719;DHT22;43322;52.230;5.702;2023-05-07T02:13:45;14.40;99.90
23719;DHT22;43322;52.230;5.702;2023-05-07T02:16:13;13.80;99.90
23719;DHT22;43322;52.230;5.702;2023-05-07T02:18:40;14.40;99.90
23719;DHT22;43322;52.230;5.702;2023-05-07T02:21:07;14.40;99.90
23719;DHT22;43322;52.230;5.702;2023-05-07T02:23:33;14.40;99.90
23719;DHT22;43322;52.230;5.702;2023-05-07T02:26:00;14.30;99.90
23719;DHT22;43322;52.230;5.702;2023-05-07T02:28:27;14.30;99.90
23719;DHT22;43322;52.230;5.702;2023-05-07T02:30:53;14.40;99.90
23719;DHT22;43322;52.230;5.702;2023-05-07T02:33:22;14.40;99.90
23719;DHT22;43322;52.230;5.702;2023-05-07T02:35:48;14.40;99.90
23719;DHT22;43322;52.230;5.702;2023-05-07T02:38:17;14.40;99.90
23719;DHT22;43322;52.230;5.702;2023-05-07T02:40:44;14.40;99.90
23719;DHT22;43322;52.230;5.702;2023-05-07T02:43:10;14.40;99.90
23719;DHT22;43322;52.230;5.702;2023-05-07T02:45:37;14.40;99.90
23719;DHT22;43322;52.230;5.702;2023-05-07T02:48:04;14.40;99.90
23719;DHT22;43322;52.230;5.702;2023-05-07T02:50:33;14.40;99.90
23719;DHT22;43322;52.230;5.702;2023-05-07T02:53:00;14.40;99.90
23719;DHT22;43322;52.230;5.702;2023-05-07T02:55:26;14.40;99.90
23719;DHT22;43322;52.230;5.702;2023-05-07T02:57:53;14.40;99.90
23719;DHT22;43322;52.230;5.702;2023-05-07T03:00:20;14.40;99.90
23719;DHT22;43322;52.230;5.702;2023-05-07T03:02:47;14.40;99.90
23719;DHT22;43322;52.230;5.702;2023-05-07T03:05:14;14.40;99.90
23719;DHT22;43322;52.230;5.702;2023-05-07T03:07:42;14.30;99.90
23719;DHT22;43322;52.230;5.702;2023-05-07T03:10:10;14.30;99.90
23719;DHT22;43322;52.230;5.702;2023-05-07T03:12:37;14.30;99.90
23719;DHT22;43322;52.230;5.702;2023-05-07T03:15:05;14.30;99.90
23719;DHT22;43322;52.230;5.702;2023-05-07T03:17:32;14.30;99.90
23719;DHT22;43322;52.230;5.702;2023-05-07T03:19:58;14.30;99.90
23719;DHT22;43322;52.230;5.702;2023-05-07T03:22:25;14.30;99.90
23719;DHT22;43322;52.230;5.702;2023-05-07T03:24:53;14.30;99.90
23719;DHT22;43322;52.230;5.702;2023-05-07T03:27:20;14.30;99.90
23719;DHT22;43322;52.230;5.702;2023-05-07T03:29:46;14.30;99.90
23719;DHT22;43322;52.230;5.702;2023-05-07T03:32:13;14.30;99.90
23719;DHT22;43322;52.230;5.702;2023-05-07T03:34:40;14.30;99.90
23719;DHT22;43322;52.230;5.702;2023-05-07T03:37:06;14.30;99.90
23719;DHT22;43322;52.230;5.702;2023-05-07T03:39:33;14.30;99.90
23719;DHT22;43322;52.230;5.702;2023-05-07T03:42:02;14.30;99.90
23719;DHT22;43322;52.230;5.702;2023-05-07T03:44:29;14.30;99.90
23719;DHT22;43322;52.230;5.702;2023-05-07T03:46:55;14.30;99.90
23719;DHT22;43322;52.230;5.702;2023-05-07T03:49:22;14.30;99.90
23719;DHT22;43322;52.230;5.702;2023-05-07T03:51:49;14.40;99.90
23719;DHT22;43322;52.230;5.702;2023-05-07T03:54:15;14.40;99.90
23719;DHT22;43322;52.230;5.702;2023-05-07T03:56:42;14.40;99.90
23719;DHT22;43322;52.230;5.702;2023-05-07T03:59:11;14.40;99.90
23719;DHT22;43322;52.230;5.702;2023-05-07T04:01:38;14.40;99.90
23719;DHT22;43322;52.230;5.702;2023-05-07T04:04:05;14.40;99.90
23719;DHT22;43322;52.230;5.702;2023-05-07T04:06:32;14.30;99.90
23719;DHT22;43322;52.230;5.702;2023-05-07T04:08:58;14.30;99.90
23719;DHT22;43322;52.230;5.702;2023-05-07T04:11:26;14.30;99.90
23719;DHT22;43322;52.230;5.702;2023-05-07T04:13:53;14.30;99.90
23719;DHT22;43322;52.230;5.702;2023-05-07T04:16:21;14.20;99.90
23719;DHT22;43322;52.230;5.702;2023-05-07T04:18:47;14.30;99.90
23719;DHT22;43322;52.230;5.702;2023-05-07T04:21:15;14.30;99.90
23719;DHT22;43322;52.230;5.702;2023-05-07T04:23:42;14.30;99.90
23719;DHT22;43322;52.230;5.702;2023-05-07T04:26:08;14.30;99.90
23719;DHT22;43322;52.230;5.702;2023-05-07T04:28:35;14.30;99.90
23719;DHT22;43322;52.230;5.702;2023-05-07T04:31:02;14.30;99.90
23719;DHT22;43322;52.230;5.702;2023-05-07T04:33:30;14.30;99.90
23719;DHT22;43322;52.230;5.702;2023-05-07T04:35:57;14.30;99.90
23719;DHT22;43322;52.230;5.702;2023-05-07T04:38:28;14.30;99.90
23719;DHT22;43322;52.230;5.702;2023-05-07T04:40:54;14.30;99.90
23719;DHT22;43322;52.230;5.702;2023-05-07T04:43:21;14.30;99.90
23719;DHT22;43322;52.230;5.702;2023-05-07T04:45:49;14.30;99.90
23719;DHT22;43322;52.230;5.702;2023-05-07T04:48:15;14.40;99.90
23719;DHT22;43322;52.230;5.702;2023-05-07T04:50:47;14.40;99.90
23719;DHT22;43322;52.230;5.702;2023-05-07T04:53:14;14.40;99.90
23719;DHT22;43322;52.230;5.702;2023-05-07T04:55:40;14.40;99.90
23719;DHT22;43322;52.230;5.702;2023-05-07T04:58:08;14.40;99.90
23719;DHT22;43322;52.230;5.702;2023-05-07T05:00:35;14.40;99.90
23719;DHT22;43322;52.230;5.702;2023-05-07T05:03:01;14.40;99.90
23719;DHT22;43322;52.230;5.702;2023-05-07T05:05:28;14.40;99.90
23719;DHT22;43322;52.230;5.702;2023-05-07T05:07:56;14.40;99.90
23719;DHT22;43322;52.230;5.702;2023-05-07T05:10:23;14.40;99.90
23719;DHT22;43322;52.230;5.702;2023-05-07T05:12:50;14.40;99.90
23719;DHT22;43322;52.230;5.702;2023-05-07T05:15:17;14.40;99.90
23719;DHT22;43322;52.230;5.702;2023-05-07T05:17:43;14.40;99.90
23719;DHT22;43322;52.230;5.702;2023-05-07T05:20:10;14.40;99.90
23719;DHT22;43322;52.230;5.702;2023-05-07T05:22:37;14.40;99.90
23719;DHT22;43322;52.230;5.702;2023-05-07T05:25:06;14.50;99.90
23719;DHT22;43322;52.230;5.702;2023-05-07T05:27:33;14.50;99.90
23719;DHT22;43322;52.230;5.702;2023-05-07T05:30:00;14.60;99.90
23719;DHT22;43322;52.230;5.702;2023-05-07T05:32:27;14.60;99.90
23719;DHT22;43322;52.230;5.702;2023-05-07T05:34:53;14.60;99.90
23719;DHT22;43322;52.230;5.702;2023-05-07T05:37:21;14.60;99.90
23719;DHT22;43322;52.230;5.702;2023-05-07T05:39:47;14.60;99.90
23719;DHT22;43322;52.230;5.702;2023-05-07T05:42:15;14.60;99.90
23719;DHT22;43322;52.230;5.702;2023-05-07T05:44:42;14.70;99.90
23719;DHT22;43322;52.230;5.702;2023-05-07T05:47:08;14.60;99.90
23719;DHT22;43322;52.230;5.702;2023-05-07T05:49:35;14.70;99.90
23719;DHT22;43322;52.230;5.702;2023-05-07T05:52:02;14.70;99.90
23719;DHT22;43322;52.230;5.702;2023-05-07T05:54:29;14.70;99.90
23719;DHT22;43322;52.230;5.702;2023-05-07T05:56:56;14.70;99.90
23719;DHT22;43322;52.230;5.702;2023-05-07T05:59:24;14.70;99.90
23719;DHT22;43322;52.230;5.702;2023-05-07T06:01:51;14.70;99.90
23719;DHT22;43322;52.230;5.702;2023-05-07T06:04:17;14.70;99.90
23719;DHT22;43322;52.230;5.702;2023-05-07T06:06:44;14.80;99.90
23719;DHT22;43322;52.230;5.702;2023-05-07T06:09:11;14.80;99.90
23719;DHT22;43322;52.230;5.702;2023-05-07T06:11:38;14.80;99.90
23719;DHT22;43322;52.230;5.702;2023-05-07T06:14:06;14.80;99.90
23719;DHT22;43322;52.230;5.702;2023-05-07T06:16:34;14.80;99.90
23719;DHT22;43322;52.230;5.702;2023-05-07T06:19:01;14.80;99.90
23719;DHT22;43322;52.230;5.702;2023-05-07T06:21:28;14.90;99.90
23719;DHT22;43322;52.230;5.702;2023-05-07T06:23:55;14.90;99.90
23719;DHT22;43322;52.230;5.702;2023-05-07T06:26:22;14.90;99.90
23719;DHT22;43322;52.230;5.702;2023-05-07T06:28:49;14.90;99.90
23719;DHT22;43322;52.230;5.702;2023-05-07T06:31:17;14.90;99.90
23719;DHT22;43322;52.230;5.702;2023-05-07T06:33:47;15.00;99.90
23719;DHT22;43322;52.230;5.702;2023-05-07T06:36:14;14.90;99.90
23719;DHT22;43322;52.230;5.702;2023-05-07T06:38:41;14.90;99.90
23719;DHT22;43322;52.230;5.702;2023-05-07T06:41:08;14.90;99.90
23719;DHT22;43322;52.230;5.702;2023-05-07T06:43:35;14.90;99.90
23719;DHT22;43322;52.230;5.702;2023-05-07T06:46:02;14.90;99.90
23719;DHT22;43322;52.230;5.702;2023-05-07T06:48:29;14.90;99.90
23719;DHT22;43322;52.230;5.702;2023-05-07T06:50:57;14.90;99.90
23719;DHT22;43322;52.230;5.702;2023-05-07T06:53:25;15.10;99.90
23719;DHT22;43322;52.230;5.702;2023-05-07T06:55:52;15.20;99.90
23719;DHT22;43322;52.230;5.702;2023-05-07T06:58:18;15.70;99.90
23719;DHT22;43322;52.230;5.702;2023-05-07T07:00:45;15.40;99.90
23719;DHT22;43322;52.230;5.702;2023-05-07T07:03:12;15.50;99.90
23719;DHT22;43322;52.230;5.702;2023-05-07T07:05:40;15.60;99.90
23719;DHT22;43322;52.230;5.702;2023-05-07T07:08:09;15.70;99.90
23719;DHT22;43322;52.230;5.702;2023-05-07T07:10:36;16.00;99.90
23719;DHT22;43322;52.230;5.702;2023-05-07T07:13:02;16.30;99.90
23719;DHT22;43322;52.230;5.702;2023-05-07T07:15:29;16.50;99.90
23719;DHT22;43322;52.230;5.702;2023-05-07T07:17:56;16.70;99.90
23719;DHT22;43322;52.230;5.702;2023-05-07T07:20:23;16.90;99.90
23719;DHT22;43322;52.230;5.702;2023-05-07T07:22:49;17.00;99.90
23719;DHT22;43322;52.230;5.702;2023-05-07T07:25:17;17.00;99.90
23719;DHT22;43322;52.230;5.702;2023-05-07T07:27:44;17.10;99.90
23719;DHT22;43322;52.230;5.702;2023-05-07T07:30:11;17.20;99.90
23719;DHT22;43322;52.230;5.702;2023-05-07T07:32:38;17.20;99.90
23719;DHT22;43322;52.230;5.702;2023-05-07T07:35:06;17.10;99.90
23719;DHT22;43322;52.230;5.702;2023-05-07T07:37:33;17.10;99.90
23719;DHT22;43322;52.230;5.702;2023-05-07T07:39:59;17.00;99.90
23719;DHT22;43322;52.230;5.702;2023-05-07T07:42:27;16.90;99.90
23719;DHT22;43322;52.230;5.702;2023-05-07T07:44:54;16.80;99.90
23719;DHT22;43322;52.230;5.702;2023-05-07T07:47:22;16.80;99.90
23719;DHT22;43322;52.230;5.702;2023-05-07T07:49:49;16.70;99.90
23719;DHT22;43322;52.230;5.702;2023-05-07T07:52:16;16.70;99.90
23719;DHT22;43322;52.230;5.702;2023-05-07T07:54:42;16.70;99.90
23719;DHT22;43322;52.230;5.702;2023-05-07T07:57:09;16.70;99.90
23719;DHT22;43322;52.230;5.702;2023-05-07T07:59:37;16.70;99.90
23719;DHT22;43322;52.230;5.702;2023-05-07T08:02:05;16.70;99.90
23719;DHT22;43322;52.230;5.702;2023-05-07T08:04:32;16.70;99.90
23719;DHT22;43322;52.230;5.702;2023-05-07T08:06:58;16.70;99.90
23719;DHT22;43322;52.230;5.702;2023-05-07T08:09:25;16.80;99.90
23719;DHT22;43322;52.230;5.702;2023-05-07T08:11:52;16.90;99.90
23719;DHT22;43322;52.230;5.702;2023-05-07T08:14:19;16.90;99.90
23719;DHT22;43322;52.230;5.702;2023-05-07T08:16:47;17.00;99.90
23719;DHT22;43322;52.230;5.702;2023-05-07T08:19:14;17.00;99.90
23719;DHT22;43322;52.230;5.702;2023-05-07T08:21:40;17.10;99.90
23719;DHT22;43322;52.230;5.702;2023-05-07T08:24:07;17.10;99.90
23719;DHT22;43322;52.230;5.702;2023-05-07T08:26:34;17.10;99.90
23719;DHT22;43322;52.230;5.702;2023-05-07T08:29:01;17.10;99.90
23719;DHT22;43322;52.230;5.702;2023-05-07T08:31:28;17.20;99.90
23719;DHT22;43322;52.230;5.702;2023-05-07T08:33:56;17.30;99.90
23719;DHT22;43322;52.230;5.702;2023-05-07T08:36:23;17.60;99.90
23719;DHT22;43322;52.230;5.702;2023-05-07T08:38:51;17.70;99.90
23719;DHT22;43322;52.230;5.702;2023-05-07T08:41:17;17.70;99.90
23719;DHT22;43322;52.230;5.702;2023-05-07T08:43:47;17.70;99.90
23719;DHT22;43322;52.230;5.702;2023-05-07T08:46:17;17.60;99.90
23719;DHT22;43322;52.230;5.702;2023-05-07T08:48:44;17.50;99.90
23719;DHT22;43322;52.230;5.702;2023-05-07T08:51:14;17.20;99.90
23719;DHT22;43322;52.230;5.702;2023-05-07T08:53:42;16.90;99.90
23719;DHT22;43322;52.230;5.702;2023-05-07T08:56:09;17.00;99.90
23719;DHT22;43322;52.230;5.702;2023-05-07T08:58:36;16.90;99.90
23719;DHT22;43322;52.230;5.702;2023-05-07T09:01:06;16.80;99.90
23719;DHT22;43322;52.230;5.702;2023-05-07T09:03:33;16.80;99.90
23719;DHT22;43322;52.230;5.702;2023-05-07T09:06:00;16.80;99.90
23719;DHT22;43322;52.230;5.702;2023-05-07T09:08:28;16.70;99.90
23719;DHT22;43322;52.230;5.702;2023-05-07T09:10:55;16.80;99.90
23719;DHT22;43322;52.230;5.702;2023-05-07T09:13:22;16.80;99.90
23719;DHT22;43322;52.230;5.702;2023-05-07T09:15:49;16.90;99.90
23719;DHT22;43322;52.230;5.702;2023-05-07T09:18:15;17.00;99.90
23719;DHT22;43322;52.230;5.702;2023-05-07T09:20:42;17.10;99.90
23719;DHT22;43322;52.230;5.702;2023-05-07T09:23:09;17.40;99.90
23719;DHT22;43322;52.230;5.702;2023-05-07T09:25:37;17.70;99.90
23719;DHT22;43322;52.230;5.702;2023-05-07T09:28:04;17.80;99.90
23719;DHT22;43322;52.230;5.702;2023-05-07T09:30:33;17.90;99.90
23719;DHT22;43322;52.230;5.702;2023-05-07T09:33:01;18.00;99.90
23719;DHT22;43322;52.230;5.702;2023-05-07T09:35:29;18.40;99.90
23719;DHT22;43322;52.230;5.702;2023-05-07T09:37:57;18.60;99.90
23719;DHT22;43322;52.230;5.702;2023-05-07T09:40:25;19.30;99.90
23719;DHT22;43322;52.230;5.702;2023-05-07T09:42:54;19.80;99.90
23719;DHT22;43322;52.230;5.702;2023-05-07T09:45:25;20.20;99.90
23719;DHT22;43322;52.230;5.702;2023-05-07T09:47:54;20.50;99.90
23719;DHT22;43322;52.230;5.702;2023-05-07T09:50:25;20.40;99.90
23719;DHT22;43322;52.230;5.702;2023-05-07T09:52:54;20.10;99.90
23719;DHT22;43322;52.230;5.702;2023-05-07T09:55:21;19.80;99.90
23719;DHT22;43322;52.230;5.702;2023-05-07T09:57:50;19.60;99.90
23719;DHT22;43322;52.230;5.702;2023-05-07T10:00:19;19.30;99.90
23719;DHT22;43322;52.230;5.702;2023-05-07T10:02:48;19.10;99.90
23719;DHT22;43322;52.230;5.702;2023-05-07T10:05:18;18.90;99.90
23719;DHT22;43322;52.230;5.702;2023-05-07T10:07:45;18.70;99.90
23719;DHT22;43322;52.230;5.702;2023-05-07T10:10:12;18.60;99.90
23719;DHT22;43322;52.230;5.702;2023-05-07T10:12:40;18.50;99.90
23719;DHT22;43322;52.230;5.702;2023-05-07T10:15:09;18.50;99.90
23719;DHT22;43322;52.230;5.702;2023-05-07T10:17:38;18.30;99.90
23719;DHT22;43322;52.230;5.702;2023-05-07T10:20:06;18.20;99.90
23719;DHT22;43322;52.230;5.702;2023-05-07T10:22:40;18.20;99.90
23719;DHT22;43322;52.230;5.702;2023-05-07T10:25:14;18.30;99.90
23719;DHT22;43322;52.230;5.702;2023-05-07T10:27:42;18.30;99.90
23719;DHT22;43322;52.230;5.702;2023-05-07T10:30:15;18.30;99.90
23719;DHT22;43322;52.230;5.702;2023-05-07T10:32:48;18.30;99.90
23719;DHT22;43322;52.230;5.702;2023-05-07T10:35:17;18.20;99.90
23719;DHT22;43322;52.230;5.702;2023-05-07T10:37:45;18.10;99.90
23719;DHT22;43322;52.230;5.702;2023-05-07T10:40:13;18.10;99.90
23719;DHT22;43322;52.230;5.702;2023-05-07T10:42:53;18.10;99.90
23719;DHT22;43322;52.230;5.702;2023-05-07T10:45:20;18.20;99.90
23719;DHT22;43322;52.230;5.702;2023-05-07T10:48:07;18.20;99.90
23719;DHT22;43322;52.230;5.702;2023-05-07T10:50:34;18.30;99.90
23719;DHT22;43322;52.230;5.702;2023-05-07T10:53:24;18.60;99.90
23719;DHT22;43322;52.230;5.702;2023-05-07T10:56:24;18.90;99.90
23719;DHT22;43322;52.230;5.702;2023-05-07T10:58:52;19.00;99.90
23719;DHT22;43322;52.230;5.702;2023-05-07T11:01:49;19.20;99.90
23719;DHT22;43322;52.230;5.702;2023-05-07T11:04:17;19.50;99.90
23719;DHT22;43322;52.230;5.702;2023-05-07T11:07:20;19.60;99.90
23719;DHT22;43322;52.230;5.702;2023-05-07T11:10:01;20.20;99.90
23719;DHT22;43322;52.230;5.702;2023-05-07T11:12:52;20.80;99.90
23719;DHT22;43322;52.230;5.702;2023-05-07T11:15:36;21.60;99.90
23719;DHT22;43322;52.230;5.702;2023-05-07T11:18:03;21.70;99.90
23719;DHT22;43322;52.230;5.702;2023-05-07T11:20:49;21.60;99.90
23719;DHT22;43322;52.230;5.702;2023-05-07T11:26:17;21.40;99.90
23719;DHT22;43322;52.230;5.702;2023-05-07T11:28:44;21.20;99.90
23719;DHT22;43322;52.230;5.702;2023-05-07T11:31:10;21.40;99.90
23719;DHT22;43322;52.230;5.702;2023-05-07T11:33:38;21.40;99.90
23719;DHT22;43322;52.230;5.702;2023-05-07T11:36:08;21.30;99.90
23719;DHT22;43322;52.230;5.702;2023-05-07T11:38:35;21.20;99.90
23719;DHT22;43322;52.230;5.702;2023-05-07T11:41:03;21.00;99.90
23719;DHT22;43322;52.230;5.702;2023-05-07T11:43:30;20.80;99.90
23719;DHT22;43322;52.230;5.702;2023-05-07T11:46:05;20.70;99.90
23719;DHT22;43322;52.230;5.702;2023-05-07T11:48:33;20.60;99.90
23719;DHT22;43322;52.230;5.702;2023-05-07T11:51:01;20.40;99.90
23719;DHT22;43322;52.230;5.702;2023-05-07T11:53:37;20.50;99.90
23719;DHT22;43322;52.230;5.702;2023-05-07T11:56:07;20.70;99.90
23719;DHT22;43322;52.230;5.702;2023-05-07T11:58:34;20.90;99.90
23719;DHT22;43322;52.230;5.702;2023-05-07T12:01:02;21.10;99.90
23719;DHT22;43322;52.230;5.702;2023-05-07T12:03:28;21.30;99.90
23719;DHT22;43322;52.230;5.702;2023-05-07T12:05:55;21.30;99.90
23719;DHT22;43322;52.230;5.702;2023-05-07T12:08:22;21.40;99.90
23719;DHT22;43322;52.230;5.702;2023-05-07T12:10:50;21.40;99.90
23719;DHT22;43322;52.230;5.702;2023-05-07T12:13:19;21.30;99.90
23719;DHT22;43322;52.230;5.702;2023-05-07T12:15:46;21.20;99.90
23719;DHT22;43322;52.230;5.702;2023-05-07T12:18:13;21.10;99.90
23719;DHT22;43322;52.230;5.702;2023-05-07T12:20:40;21.00;99.90
23719;DHT22;43322;52.230;5.702;2023-05-07T12:23:07;21.00;99.90
23719;DHT22;43322;52.230;5.702;2023-05-07T12:25:34;21.00;99.90
23719;DHT22;43322;52.230;5.702;2023-05-07T12:28:03;21.00;99.90
23719;DHT22;43322;52.230;5.702;2023-05-07T12:30:30;20.90;99.90
23719;DHT22;43322;52.230;5.702;2023-05-07T12:32:57;20.90;99.90
23719;DHT22;43322;52.230;5.702;2023-05-07T12:35:27;20.80;99.90
23719;DHT22;43322;52.230;5.702;2023-05-07T12:37:58;20.80;99.90
23719;DHT22;43322;52.230;5.702;2023-05-07T12:40:35;20.80;99.90
23719;DHT22;43322;52.230;5.702;2023-05-07T12:43:04;20.70;99.90
23719;DHT22;43322;52.230;5.702;2023-05-07T12:45:30;20.70;99.90
23719;DHT22;43322;52.230;5.702;2023-05-07T12:48:01;20.70;99.90
23719;DHT22;43322;52.230;5.702;2023-05-07T12:50:31;20.70;99.90
23719;DHT22;43322;52.230;5.702;2023-05-07T12:52:58;20.70;99.90
23719;DHT22;43322;52.230;5.702;2023-05-07T12:55:25;20.80;99.90
23719;DHT22;43322;52.230;5.702;2023-05-07T12:57:53;20.90;99.90
23719;DHT22;43322;52.230;5.702;2023-05-07T13:00:34;21.00;99.90
23719;DHT22;43322;52.230;5.702;2023-05-07T13:03:01;21.20;99.90
23719;DHT22;43322;52.230;5.702;2023-05-07T13:05:27;21.40;99.90
23719;DHT22;43322;52.230;5.702;2023-05-07T13:07:54;21.70;99.90
23719;DHT22;43322;52.230;5.702;2023-05-07T13:10:22;22.30;99.90
23719;DHT22;43322;52.230;5.702;2023-05-07T13:12:48;22.50;99.90
23719;DHT22;43322;52.230;5.702;2023-05-07T13:15:15;23.10;99.90
23719;DHT22;43322;52.230;5.702;2023-05-07T13:17:44;23.70;99.90
23719;DHT22;43322;52.230;5.702;2023-05-07T13:20:11;23.80;99.90
23719;DHT22;43322;52.230;5.702;2023-05-07T13:22:39;23.50;99.90
23719;DHT22;43322;52.230;5.702;2023-05-07T13:25:07;23.10;99.90
23719;DHT22;43322;52.230;5.702;2023-05-07T13:27:34;23.00;99.90
23719;DHT22;43322;52.230;5.702;2023-05-07T13:30:02;23.10;99.90
23719;DHT22;43322;52.230;5.702;2023-05-07T13:32:30;23.20;99.90
23719;DHT22;43322;52.230;5.702;2023-05-07T13:34:58;23.10;99.90
23719;DHT22;43322;52.230;5.702;2023-05-07T13:37:24;23.10;99.90
23719;DHT22;43322;52.230;5.702;2023-05-07T13:39:51;23.10;99.90
23719;DHT22;43322;52.230;5.702;2023-05-07T13:42:18;22.90;99.90
23719;DHT22;43322;52.230;5.702;2023-05-07T13:44:44;22.90;99.90
23719;DHT22;43322;52.230;5.702;2023-05-07T13:47:11;22.70;99.90
23719;DHT22;43322;52.230;5.702;2023-05-07T13:49:38;22.50;99.90
23719;DHT22;43322;52.230;5.702;2023-05-07T13:52:06;22.40;99.90
23719;DHT22;43322;52.230;5.702;2023-05-07T13:54:32;22.40;99.90
23719;DHT22;43322;52.230;5.702;2023-05-07T13:56:59;22.50;99.90
23719;DHT22;43322;52.230;5.702;2023-05-07T13:59:27;22.50;99.90
23719;DHT22;43322;52.230;5.702;2023-05-07T14:01:54;22.50;99.90
23719;DHT22;43322;52.230;5.702;2023-05-07T14:04:21;22.90;99.90
23719;DHT22;43322;52.230;5.702;2023-05-07T14:06:47;23.00;99.90
23719;DHT22;43322;52.230;5.702;2023-05-07T14:09:15;23.10;99.90
23719;DHT22;43322;52.230;5.702;2023-05-07T14:11:42;23.00;99.90
23719;DHT22;43322;52.230;5.702;2023-05-07T14:14:09;23.00;99.90
23719;DHT22;43322;52.230;5.702;2023-05-07T14:16:37;23.00;99.90
23719;DHT22;43322;52.230;5.702;2023-05-07T14:19:03;22.70;99.90
23719;DHT22;43322;52.230;5.702;2023-05-07T14:21:30;22.50;99.90
23719;DHT22;43322;52.230;5.702;2023-05-07T14:23:57;22.30;99.90
23719;DHT22;43322;52.230;5.702;2023-05-07T14:26:26;22.00;99.90
23719;DHT22;43322;52.230;5.702;2023-05-07T14:28:53;21.90;99.90
23719;DHT22;43322;52.230;5.702;2023-05-07T14:31:22;21.80;99.90
23719;DHT22;43322;52.230;5.702;2023-05-07T14:33:49;21.70;99.90
23719;DHT22;43322;52.230;5.702;2023-05-07T14:36:16;21.60;99.90
23719;DHT22;43322;52.230;5.702;2023-05-07T14:38:43;21.40;99.90
23719;DHT22;43322;52.230;5.702;2023-05-07T14:41:10;21.20;99.90
23719;DHT22;43322;52.230;5.702;2023-05-07T14:43:38;21.00;99.90
23719;DHT22;43322;52.230;5.702;2023-05-07T14:46:05;21.00;99.90
23719;DHT22;43322;52.230;5.702;2023-05-07T14:48:31;20.80;99.90
23719;DHT22;43322;52.230;5.702;2023-05-07T14:50:58;20.70;99.90
23719;DHT22;43322;52.230;5.702;2023-05-07T14:53:25;20.70;99.90
23719;DHT22;43322;52.230;5.702;2023-05-07T14:55:51;20.20;99.90
23719;DHT22;43322;52.230;5.702;2023-05-07T14:58:18;20.30;99.90
23719;DHT22;43322;52.230;5.702;2023-05-07T15:00:46;20.20;99.90
23719;DHT22;43322;52.230;5.702;2023-05-07T15:03:14;20.10;99.90
23719;DHT22;43322;52.230;5.702;2023-05-07T15:05:40;19.90;99.90
23719;DHT22;43322;52.230;5.702;2023-05-07T15:08:07;19.70;99.90
23719;DHT22;43322;52.230;5.702;2023-05-07T15:10:35;19.70;99.90
23719;DHT22;43322;52.230;5.702;2023-05-07T15:13:06;19.60;99.90
23719;DHT22;43322;52.230;5.702;2023-05-07T15:15:33;19.50;99.90
23719;DHT22;43322;52.230;5.702;2023-05-07T15:18:01;19.50;99.90
23719;DHT22;43322;52.230;5.702;2023-05-07T15:20:27;19.40;99.90
23719;DHT22;43322;52.230;5.702;2023-05-07T15:22:54;19.30;99.90
23719;DHT22;43322;52.230;5.702;2023-05-07T15:25:22;19.30;99.90
23719;DHT22;43322;52.230;5.702;2023-05-07T15:27:49;19.20;99.90
23719;DHT22;43322;52.230;5.702;2023-05-07T15:30:16;19.10;99.90
23719;DHT22;43322;52.230;5.702;2023-05-07T15:32:45;19.10;99.90
23719;DHT22;43322;52.230;5.702;2023-05-07T15:35:13;19.10;99.90
23719;DHT22;43322;52.230;5.702;2023-05-07T15:37:40;19.00;99.90